Time;durP1;ratioP1;P1;durP2;ratioP2;P2;SDS_P1;SDS_P2;PMS_P1;PMS_P2;Temp;Humidity;BMP_temperature;BMP_pressure;BME280_temperature;BME280_humidity;BME280_pressure;Samples;Min_cycle;Max_cycle;Signal;HPM_P1;HPM_P2
2023/01/10 00:00:23;;;;;;;20.83;3.90;;;;;;;14.53;100.00;100970.72;5058448;28;20037;-50
2023/01/10 00:02:49;;;;;;;16.13;3.42;;;;;;;14.47;100.00;100975.94;5062011;28;20030;-49
2023/01/10 00:05:15;;;;;;;17.65;3.53;;;;;;;13.75;100.00;100984.22;5062959;28;20089;-48
2023/01/10 00:07:40;;;;;;;21.33;4.50;;;;;;;13.76;100.00;100986.69;5059085;28;20064;-51
2023/01/10 00:10:07;;;;;;;19.47;3.57;;;;;;;14.03;100.00;101004.56;5059125;28;20041;-54
2023/01/10 00:15:16;;;;;;;16.38;4.25;;;;;;;13.55;100.00;101014.66;5059164;28;20041;-52
2023/01/10 00:17:42;;;;;;;12.37;3.33;;;;;;;13.52;100.00;101033.91;5062797;28;20033;-48
2023/01/10 00:20:08;;;;;;;28.13;3.60;;;;;;;13.69;100.00;101025.38;5057586;28;20033;-50
2023/01/10 00:22:34;;;;;;;22.27;3.07;;;;;;;13.69;100.00;101034.25;5056891;28;20045;-54
2023/01/10 00:24:59;;;;;;;14.27;2.57;;;;;;;13.82;100.00;101027.19;5056284;28;20029;-53
2023/01/10 00:27:25;;;;;;;19.03;2.83;;;;;;;14.01;100.00;101031.69;5059671;28;20262;-51
2023/01/10 00:29:51;;;;;;;18.97;4.37;;;;;;;13.59;100.00;101047.31;5058934;28;20021;-51
2023/01/10 00:32:17;;;;;;;21.20;3.55;;;;;;;13.77;100.00;101035.91;5059707;28;20278;-54
2023/01/10 00:34:42;;;;;;;18.88;3.38;;;;;;;14.00;100.00;101046.16;5058982;28;20036;-49
2023/01/10 00:37:08;;;;;;;16.70;3.17;;;;;;;14.58;100.00;101046.28;5061051;28;20140;-48
2023/01/10 00:39:34;;;;;;;27.75;3.53;;;;;;;13.70;100.00;101040.47;5057796;28;20029;-52
2023/01/10 00:44:45;;;;;;;25.65;3.33;;;;;;;13.49;100.00;101063.88;5056414;28;20041;-54
2023/01/10 00:47:11;;;;;;;15.18;2.50;;;;;;;13.86;100.00;101053.47;5056218;28;20041;-51
2023/01/10 00:49:37;;;;;;;24.60;3.20;;;;;;;13.54;100.00;101065.94;5060108;28;20105;-50
2023/01/10 00:52:03;;;;;;;13.05;2.92;;;;;;;14.08;100.00;101057.72;5061796;28;20044;-52
2023/01/10 00:54:28;;;;;;;22.80;4.17;;;;;;;14.28;100.00;101068.38;5059285;28;20040;-50
2023/01/10 00:56:54;;;;;;;20.70;2.70;;;;;;;14.11;100.00;101068.88;5058758;28;20029;-53
2023/01/10 00:59:19;;;;;;;24.37;3.63;;;;;;;14.30;100.00;101080.56;5057245;28;20033;-50
2023/01/10 01:01:45;;;;;;;23.38;3.33;;;;;;;13.80;100.00;101081.16;5060435;28;20029;-53
2023/01/10 01:04:10;;;;;;;28.43;3.97;;;;;;;14.05;100.00;101092.06;5055910;28;20041;-51
2023/01/10 01:06:36;;;;;;;25.08;2.83;;;;;;;13.52;100.00;101086.81;5054579;28;20043;-52
2023/01/10 01:09:01;;;;;;;17.87;2.53;;;;;;;14.02;100.00;101089.78;5056306;28;20079;-49
2023/01/10 01:11:26;;;;;;;19.33;3.47;;;;;;;14.24;100.00;101084.13;5061921;28;20021;-54
2023/01/10 01:13:52;;;;;;;18.42;3.65;;;;;;;14.03;100.00;101086.06;5054775;28;20140;-53
2023/01/10 01:16:18;;;;;;;21.33;3.50;;;;;;;14.19;100.00;101087.44;5065557;28;20056;-51
2023/01/10 01:18:44;;;;;;;26.38;4.55;;;;;;;13.78;100.00;101091.31;5058698;28;20277;-53
2023/01/10 01:21:09;;;;;;;15.83;2.67;;;;;;;13.76;100.00;101099.59;5059420;28;20089;-55
2023/01/10 01:23:35;;;;;;;17.10;3.05;;;;;;;13.48;100.00;101097.97;5056145;28;20037;-52
2023/01/10 01:26:01;;;;;;;17.80;2.28;;;;;;;14.03;100.00;101104.88;5059127;28;20033;-53
2023/01/10 01:28:27;;;;;;;14.40;2.37;;;;;;;13.85;100.00;101105.56;5055907;28;20033;-51
2023/01/10 01:30:52;;;;;;;21.15;4.50;;;;;;;13.76;100.00;101107.66;5058608;28;20049;-52
2023/01/10 01:33:19;;;;;;;12.67;2.60;;;;;;;16.37;100.00;101109.72;5058424;28;20032;-50
2023/01/10 01:35:46;;;;;;;10.15;2.40;;;;;;;13.26;100.00;101101.88;5058541;28;20061;-50
2023/01/10 01:38:12;;;;;;;8.07;2.58;;;;;;;13.78;100.00;101112.81;5058220;28;20048;-51
2023/01/10 01:40:40;;;;;;;15.93;3.50;;;;;;;13.97;100.00;101105.75;5058439;28;20038;-53
2023/01/10 01:43:27;;;;;;;12.95;2.38;;;;;;;14.32;100.00;101108.09;5061505;28;20095;-50
2023/01/10 01:45:54;;;;;;;21.80;2.58;;;;;;;14.38;100.00;101127.94;5059277;28;20040;-51
2023/01/10 01:48:28;;;;;;;19.90;2.60;;;;;;;13.97;100.00;101129.94;5061479;28;20033;-51
2023/01/10 01:50:58;;;;;;;20.17;3.50;;;;;;;14.28;100.00;101132.94;5050898;28;20033;-53
2023/01/10 01:53:29;;;;;;;20.48;3.35;;;;;;;14.17;100.00;101139.78;5059590;28;20060;-51
2023/01/10 01:56:02;;;;;;;13.40;2.78;;;;;;;13.82;100.00;101137.41;5055283;28;20848;-49
2023/01/10 01:58:45;;;;;;;15.23;3.42;;;;;;;14.76;100.00;101145.16;5060030;28;20040;-49
2023/01/10 02:01:11;;;;;;;23.52;3.15;;;;;;;14.32;100.00;101144.94;5055633;28;20097;-49
2023/01/10 02:03:38;;;;;;;14.25;3.20;;;;;;;14.58;100.00;101145.84;5058379;28;20042;-55
2023/01/10 02:06:05;;;;;;;15.77;3.15;;;;;;;14.72;100.00;101154.72;5058282;28;20033;-53
2023/01/10 02:08:32;;;;;;;19.67;3.10;;;;;;;15.02;100.00;101154.13;5057526;28;20029;-52
2023/01/10 02:11:07;;;;;;;18.77;2.40;;;;;;;14.70;100.00;101156.78;5058463;28;20028;-53
2023/01/10 02:13:37;;;;;;;14.68;3.42;;;;;;;14.62;100.00;101163.22;5059914;28;20049;-50
2023/01/10 02:16:03;;;;;;;26.70;4.05;;;;;;;15.00;100.00;101165.13;5057485;28;20026;-51
2023/01/10 02:18:29;;;;;;;23.05;2.47;;;;;;;14.87;100.00;101166.00;5055518;28;20113;-50
2023/01/10 02:21:23;;;;;;;28.23;3.33;;;;;;;15.33;100.00;101165.91;5056236;28;20026;-48
2023/01/10 02:24:08;;;;;;;24.58;3.10;;;;;;;14.84;100.00;101162.94;5054227;28;20033;-50
2023/01/10 02:27:03;;;;;;;23.50;3.35;;;;;;;15.20;100.00;101167.66;5052647;28;20099;-50
2023/01/10 02:29:51;;;;;;;24.35;3.28;;;;;;;14.77;100.00;101174.56;5052251;28;20033;-54
2023/01/10 02:32:36;;;;;;;10.77;2.55;;;;;;;15.13;100.00;101171.44;5055820;28;20050;-49
2023/01/10 02:35:07;;;;;;;23.52;3.90;;;;;;;14.70;100.00;101179.13;5057766;28;20042;-53
2023/01/10 02:37:50;;;;;;;22.27;3.97;;;;;;;14.84;100.00;101184.47;5056018;28;20057;-53
2023/01/10 02:40:34;;;;;;;11.85;2.83;;;;;;;14.40;100.00;101181.50;5060173;28;20048;-51
2023/01/10 02:42:59;;;;;;;17.50;3.80;;;;;;;14.41;100.00;101184.00;5061766;28;20100;-53
2023/01/10 02:45:35;;;;;;;25.17;4.20;;;;;;;14.53;100.00;101162.63;5064011;28;20064;-51
2023/01/10 02:48:00;;;;;;;24.70;2.90;;;;;;;14.62;100.00;101174.78;5060453;28;20049;-53
2023/01/10 02:50:29;;;;;;;21.87;3.70;;;;;;;14.61;100.00;101172.34;5067333;28;20091;-48
2023/01/10 02:53:03;;;;;;;18.63;2.80;;;;;;;15.10;100.00;101177.28;5062478;28;20648;-52
2023/01/10 02:56:01;;;;;;;19.95;3.00;;;;;;;14.58;100.00;101172.78;5060761;28;20041;-53
2023/01/10 02:58:48;;;;;;;29.63;3.67;;;;;;;14.32;100.00;101174.53;5062892;28;20037;-53
2023/01/10 03:01:41;;;;;;;18.70;3.42;;;;;;;14.35;100.00;101179.47;5063862;28;20033;-54
2023/01/10 03:04:23;;;;;;;20.90;3.67;;;;;;;15.00;100.00;101185.81;5057064;28;20033;-51
2023/01/10 03:07:03;;;;;;;26.90;3.13;;;;;;;14.39;100.00;101188.78;5059741;28;20034;-56
2023/01/10 03:09:39;;;;;;;21.08;3.22;;;;;;;13.80;100.00;101196.75;5059982;28;20029;-51
2023/01/10 03:12:21;;;;;;;23.27;4.45;;;;;;;14.07;100.00;101202.13;5057178;28;20045;-49
2023/01/10 03:14:48;;;;;;;23.90;4.50;;;;;;;14.68;100.00;101186.59;5060691;28;20056;-51
2023/01/10 03:17:17;;;;;;;18.38;3.97;;;;;;;14.56;100.00;101207.16;5058712;28;20029;-55
2023/01/10 03:19:49;;;;;;;21.35;3.60;;;;;;;14.90;100.00;101207.84;5060467;28;20033;-51
2023/01/10 03:22:16;;;;;;;28.67;3.90;;;;;;;14.95;100.00;101213.41;5058477;28;20029;-55
2023/01/10 03:24:46;;;;;;;17.92;4.00;;;;;;;15.24;100.00;101218.41;5058283;28;20242;-54
2023/01/10 03:27:21;;;;;;;16.45;3.55;;;;;;;18.34;100.00;101223.47;5059361;28;20056;-55
2023/01/10 03:30:17;;;;;;;18.25;3.30;;;;;;;14.58;100.00;101224.72;5059291;28;20047;-51
2023/01/10 03:32:43;;;;;;;16.15;3.72;;;;;;;14.45;100.00;101230.97;5060916;28;20109;-55
2023/01/10 03:35:11;;;;;;;10.15;3.70;;;;;;;13.74;100.00;101230.69;5061383;28;20073;-53
2023/01/10 03:37:53;;;;;;;18.55;3.58;;;;;;;14.36;100.00;101237.63;5060291;28;20030;-51
2023/01/10 03:40:32;;;;;;;26.17;4.20;;;;;;;14.88;100.00;101231.47;5062711;28;20033;-55
2023/01/10 03:46:07;;;;;;;16.17;2.90;;;;;;;18.89;100.00;101253.81;5058412;28;20056;-54
2023/01/10 03:48:37;;;;;;;25.52;4.07;;;;;;;14.00;100.00;101255.06;5061340;28;20028;-53
2023/01/10 03:51:06;;;;;;;25.52;4.03;;;;;;;14.32;100.00;101253.34;5060561;28;20025;-55
2023/01/10 03:53:33;;;;;;;23.45;4.25;;;;;;;14.32;100.00;101260.63;5059425;28;20064;-55
2023/01/10 03:55:59;;;;;;;23.20;4.60;;;;;;;14.58;100.00;101238.16;5061839;28;20071;-56
2023/01/10 03:58:28;;;;;;;20.23;3.65;;;;;;;14.64;100.00;101255.34;5059034;28;20044;-51
2023/01/10 04:00:53;;;;;;;24.58;4.93;;;;;;;14.79;100.00;101268.56;5056206;28;20045;-54
2023/01/10 04:03:19;;;;;;;21.85;5.03;;;;;;;14.63;100.00;101265.28;5061066;28;20038;-56
2023/01/10 04:05:44;;;;;;;19.63;3.73;;;;;;;14.93;100.00;101269.34;5061676;28;20037;-51
2023/01/10 04:08:09;;;;;;;16.53;3.93;;;;;;;14.82;100.00;101278.09;5062517;28;20045;-51
2023/01/10 04:10:36;;;;;;;31.17;4.40;;;;;;;14.91;100.00;101283.03;5064659;28;20044;-55
2023/01/10 04:13:03;;;;;;;21.00;3.63;;;;;;;14.43;100.00;101273.41;5062504;28;20080;-55
2023/01/10 04:15:30;;;;;;;21.85;4.25;;;;;;;14.70;100.00;101276.03;5061114;28;20108;-51
2023/01/10 04:17:56;;;;;;;23.67;3.72;;;;;;;14.94;100.00;101284.47;5059017;28;20033;-54
2023/01/10 04:20:25;;;;;;;23.88;4.47;;;;;;;14.77;100.00;101290.34;5061352;28;20048;-53
2023/01/10 04:22:53;;;;;;;34.85;4.43;;;;;;;15.27;100.00;101296.97;5056698;28;20058;-51
2023/01/10 04:25:21;;;;;;;25.58;4.40;;;;;;;14.93;100.00;101290.06;5060999;28;20033;-51
2023/01/10 04:27:51;;;;;;;29.38;4.00;;;;;;;15.58;100.00;101298.00;5058504;28;20052;-53
2023/01/10 04:30:18;;;;;;;36.17;4.35;;;;;;;15.05;100.00;101299.97;5058332;28;20496;-54
2023/01/10 04:32:45;;;;;;;17.40;4.55;;;;;;;15.10;100.00;101303.88;5060041;28;20057;-54
2023/01/10 04:35:10;;;;;;;;;;;;;;;15.03;100.00;101301.19;5055442;28;20041;-52
2023/01/10 04:37:36;;;;;;;23.60;4.43;;;;;;;15.16;100.00;101306.53;5058707;28;19913;-49
2023/01/10 04:40:03;;;;;;;28.92;4.22;;;;;;;14.49;100.00;101307.53;5058626;28;20033;-52
2023/01/10 04:42:28;;;;;;;;;;;;;;;14.55;100.00;101303.19;5059095;28;20037;-54
2023/01/10 04:44:54;;;;;;;20.40;4.13;;;;;;;15.15;100.00;101304.88;5057770;28;19921;-54
2023/01/10 04:47:19;;;;;;;25.60;5.40;;;;;;;15.10;100.00;101311.94;5065665;28;20033;-52
2023/01/10 04:49:45;;;;;;;26.73;3.85;;;;;;;15.53;100.00;101303.22;5059394;28;20040;-53
2023/01/10 04:52:10;;;;;;;35.93;5.50;;;;;;;15.14;100.00;101313.19;5055814;28;20033;-53
2023/01/10 04:54:36;;;;;;;26.33;3.97;;;;;;;15.13;100.00;101311.53;5061656;28;20067;-51
2023/01/10 04:57:01;;;;;;;30.27;5.07;;;;;;;18.37;100.00;101325.88;5061891;28;20045;-54
2023/01/10 04:59:27;;;;;;;25.40;5.40;;;;;;;14.79;100.00;101322.41;5062762;28;20041;-53
2023/01/10 05:01:52;;;;;;;32.30;4.83;;;;;;;15.19;100.00;101313.34;5055783;28;20089;-50
2023/01/10 05:04:19;;;;;;;25.25;3.92;;;;;;;14.71;100.00;101326.16;5059542;28;20038;-50
2023/01/10 05:06:45;;;;;;;22.48;4.47;;;;;;;14.99;100.00;101319.69;5060299;28;20055;-51
2023/01/10 05:09:10;;;;;;;23.40;4.60;;;;;;;15.11;100.00;101298.28;5056475;28;20033;-51
2023/01/10 05:11:36;;;;;;;24.15;4.45;;;;;;;15.22;100.00;101310.22;5060367;28;20112;-55
2023/01/10 05:14:02;;;;;;;22.27;4.17;;;;;;;15.29;100.00;101316.41;5058606;28;20056;-52
2023/01/10 05:16:27;;;;;;;17.10;4.00;;;;;;;14.83;100.00;101318.25;5056419;28;20036;-50
2023/01/10 05:18:53;;;;;;;27.50;4.28;;;;;;;15.46;100.00;101332.91;5055580;28;20036;-52
2023/01/10 05:21:19;;;;;;;24.63;4.50;;;;;;;14.94;100.00;101335.63;5056503;28;20053;-53
2023/01/10 05:23:44;;;;;;;30.70;4.43;;;;;;;14.95;100.00;101350.75;5057112;28;20044;-49
2023/01/10 05:26:12;;;;;;;47.30;5.57;;;;;;;16.18;100.00;101355.25;5057080;28;20275;-53
2023/01/10 05:28:38;;;;;;;26.05;5.25;;;;;;;15.57;100.00;101365.59;5056232;28;20053;-52
2023/01/10 05:31:08;;;;;;;21.35;4.35;;;;;;;14.11;100.00;101353.94;5057365;28;20076;-52
2023/01/10 05:33:35;;;;;;;37.30;6.22;;;;;;;15.24;100.00;101356.66;5061860;28;20025;-51
2023/01/10 05:36:05;;;;;;;21.33;4.18;;;;;;;19.70;100.00;101363.25;5059858;28;20037;-50
2023/01/10 05:38:31;;;;;;;26.13;4.88;;;;;;;14.65;100.00;101361.97;5054290;28;20033;-50
2023/01/10 05:40:58;;;;;;;22.60;4.35;;;;;;;14.94;100.00;101367.94;5059406;28;20038;-52
2023/01/10 05:43:25;;;;;;;26.10;4.22;;;;;;;14.96;100.00;101368.56;5060671;28;20056;-55
2023/01/10 05:45:51;;;;;;;29.52;4.03;;;;;;;16.25;100.00;101374.09;5061330;28;20096;-53
2023/01/10 05:48:17;;;;;;;18.27;5.55;;;;;;;15.36;100.00;101380.22;5056520;28;20065;-50
2023/01/10 05:50:43;;;;;;;37.10;5.97;;;;;;;15.40;100.00;101378.75;5058825;28;20033;-53
2023/01/10 05:53:09;;;;;;;22.35;4.38;;;;;;;15.71;100.00;101374.47;5054524;28;20030;-53
2023/01/10 05:55:34;;;;;;;30.80;4.53;;;;;;;15.41;100.00;101385.78;5057709;28;20168;-50
2023/01/10 05:57:59;;;;;;;30.50;7.10;;;;;;;18.41;100.00;101393.94;5061134;28;20056;-53
2023/01/10 06:00:26;;;;;;;25.92;5.60;;;;;;;14.97;100.00;101394.44;5062875;28;20065;-52
2023/01/10 06:02:55;;;;;;;23.27;4.85;;;;;;;15.09;100.00;101396.50;5061473;28;20113;-51
2023/01/10 06:05:21;;;;;;;33.03;5.47;;;;;;;14.63;100.00;101389.09;5056298;28;20037;-50
2023/01/10 06:07:47;;;;;;;22.38;4.75;;;;;;;14.86;100.00;101382.47;5059304;28;20096;-51
2023/01/10 06:10:13;;;;;;;24.50;4.50;;;;;;;15.10;100.00;101398.16;5065506;28;20033;-51
2023/01/10 06:12:39;;;;;;;31.37;5.13;;;;;;;14.49;100.00;101401.72;5053113;28;20037;-49
2023/01/10 06:15:06;;;;;;;29.52;5.07;;;;;;;14.58;100.00;101401.53;5065928;28;20354;-52
2023/01/10 06:17:31;;;;;;;37.63;6.28;;;;;;;13.98;100.00;101413.09;5064301;28;20037;-52
2023/01/10 06:19:57;;;;;;;42.27;5.00;;;;;;;14.81;100.00;101422.66;5060453;28;20064;-53
2023/01/10 06:22:22;;;;;;;21.97;4.47;;;;;;;15.27;100.00;101425.44;5063220;28;20037;-50
2023/01/10 06:24:48;;;;;;;37.40;6.00;;;;;;;14.99;100.00;101419.31;5062873;28;20037;-52
2023/01/10 06:27:13;;;;;;;61.93;7.27;;;;;;;15.24;100.00;101418.63;5062916;28;20029;-54
2023/01/10 06:29:39;;;;;;;38.17;7.78;;;;;;;14.43;100.00;101405.25;5059317;28;20286;-48
2023/01/10 06:32:04;;;;;;;27.57;5.33;;;;;;;14.39;100.00;101413.94;5064548;28;20097;-54
2023/01/10 06:34:29;;;;;;;25.47;6.40;;;;;;;14.34;100.00;101417.28;5064356;28;20047;-53
2023/01/10 06:36:55;;;;;;;30.98;6.00;;;;;;;14.64;100.00;101419.53;5060093;28;20025;-49
2023/01/10 06:39:21;;;;;;;34.50;6.37;;;;;;;14.01;100.00;101423.44;5059102;28;20045;-49
2023/01/10 06:41:46;;;;;;;32.97;5.77;;;;;;;14.12;100.00;101422.84;5063914;28;20282;-51
2023/01/10 06:44:12;;;;;;;29.53;6.13;;;;;;;14.79;100.00;101430.13;5059731;28;20089;-51
2023/01/10 06:46:38;;;;;;;39.17;6.05;;;;;;;15.12;100.00;101439.16;5060678;28;20037;-55
2023/01/10 06:49:04;;;;;;;29.47;5.63;;;;;;;14.73;100.00;101439.84;5063703;28;20101;-52
2023/01/10 06:51:29;;;;;;;30.92;4.63;;;;;;;15.28;100.00;101438.72;5058747;28;20060;-51
2023/01/10 06:53:55;;;;;;;33.43;4.70;;;;;;;14.33;100.00;101432.56;5058663;28;20037;-52
2023/01/10 06:56:21;;;;;;;23.83;5.43;;;;;;;14.37;100.00;101434.84;5059463;28;20032;-52
2023/01/10 06:58:49;;;;;;;42.47;6.20;;;;;;;14.61;100.00;101428.84;5057975;28;20039;-51
2023/01/10 07:01:17;;;;;;;26.55;4.82;;;;;;;14.68;100.00;101431.53;5063329;28;20040;-52
2023/01/10 07:03:43;;;;;;;31.60;5.50;;;;;;;14.80;100.00;101445.22;5064509;28;20091;-54
2023/01/10 07:06:09;;;;;;;25.17;7.27;;;;;;;14.80;100.00;101460.56;5068320;28;20033;-53
2023/01/10 07:08:45;;;;;;;29.07;4.43;;;;;;;14.34;100.00;101465.72;5065112;28;20029;-51
2023/01/10 07:11:12;;;;;;;26.67;4.72;;;;;;;14.02;100.00;101471.66;5059417;28;20033;-50
2023/01/10 07:13:38;;;;;;;24.90;5.63;;;;;;;13.87;100.00;101461.06;5061852;28;20041;-49
2023/01/10 07:16:09;;;;;;;45.22;5.65;;;;;;;13.79;100.00;101468.47;5056170;28;20029;-51
2023/01/10 07:18:36;;;;;;;23.75;4.47;;;;;;;13.99;100.00;101472.06;5062445;28;20033;-50
2023/01/10 07:21:03;;;;;;;29.15;5.63;;;;;;;14.25;100.00;101483.06;5062038;28;20037;-52
2023/01/10 07:23:30;;;;;;;36.03;6.45;;;;;;;13.97;100.00;101494.78;5063792;28;20044;-51
2023/01/10 07:26:17;;;;;;;44.28;7.25;;;;;;;13.73;100.00;101513.09;5064898;28;20033;-54
2023/01/10 07:28:49;;;;;;;33.70;6.25;;;;;;;13.80;100.00;101508.56;5064913;28;20037;-51
2023/01/10 07:31:16;;;;;;;37.65;6.35;;;;;;;14.08;100.00;101521.13;5055952;28;20060;-52
2023/01/10 07:33:42;;;;;;;32.53;5.07;;;;;;;14.03;100.00;101535.16;5056390;28;20037;-54
2023/01/10 07:36:07;;;;;;;29.70;4.90;;;;;;;14.45;100.00;101535.06;5062717;28;20069;-52
2023/01/10 07:38:33;;;;;;;31.88;5.65;;;;;;;14.29;100.00;101538.13;5057353;28;20221;-51
2023/01/10 07:41:02;;;;;;;34.70;5.40;;;;;;;14.20;100.00;101540.19;5059717;28;20052;-52
2023/01/10 07:43:29;;;;;;;35.80;6.15;;;;;;;13.63;100.00;101540.34;5061870;28;20037;-49
2023/01/10 07:45:57;;;;;;;31.70;5.85;;;;;;;13.80;100.00;101538.16;5058226;28;20095;-51
2023/01/10 07:48:23;;;;;;;28.65;6.20;;;;;;;13.69;100.00;101530.66;5061499;28;20064;-52
2023/01/10 07:50:49;;;;;;;32.47;5.72;;;;;;;13.57;100.00;101541.97;5057498;28;20037;-52
2023/01/10 07:53:15;;;;;;;42.70;7.50;;;;;;;13.69;100.00;101533.34;5059645;28;20045;-51
2023/01/10 07:55:42;;;;;;;18.00;4.27;;;;;;;14.23;100.00;101547.00;5056737;28;20033;-53
2023/01/10 07:58:07;;;;;;;27.38;5.93;;;;;;;13.77;100.00;101536.72;5058254;28;20034;-48
2023/01/10 08:00:34;;;;;;;30.42;5.53;;;;;;;13.76;100.00;101556.56;5056774;28;20044;-58
2023/01/10 08:02:59;;;;;;;32.83;5.90;;;;;;;13.67;100.00;101549.66;5053976;28;20040;-52
2023/01/10 08:05:25;;;;;;;20.17;3.73;;;;;;;13.47;100.00;101549.56;5058147;28;20049;-52
2023/01/10 08:07:51;;;;;;;33.50;4.90;;;;;;;13.45;100.00;101543.56;5059525;28;20041;-51
2023/01/10 08:10:17;;;;;;;27.75;6.47;;;;;;;13.83;100.00;101553.88;5054410;28;20045;-50
2023/01/10 08:12:42;;;;;;;39.40;5.10;;;;;;;13.57;100.00;101554.59;5050738;28;20041;-50
2023/01/10 08:15:09;;;;;;;31.97;6.97;;;;;;;13.43;100.00;101559.06;5055988;28;20085;-49
2023/01/10 08:17:35;;;;;;;32.10;4.88;;;;;;;13.60;100.00;101555.00;5057486;28;20033;-53
2023/01/10 08:20:01;;;;;;;33.05;4.50;;;;;;;14.61;100.00;101557.25;5058132;28;20037;-50
2023/01/10 08:22:27;;;;;;;20.40;4.35;;;;;;;13.63;100.00;101556.47;5054973;28;20037;-51
2023/01/10 08:24:52;;;;;;;25.13;5.63;;;;;;;14.11;100.00;101570.97;5058467;28;20036;-49
2023/01/10 08:27:18;;;;;;;22.40;5.10;;;;;;;13.60;100.00;101544.25;5061045;28;20033;-51
2023/01/10 08:29:43;;;;;;;38.30;5.40;;;;;;;13.70;100.00;101560.03;5058058;28;20403;-51
2023/01/10 08:32:10;;;;;;;32.25;4.53;;;;;;;14.07;100.00;101551.72;5055248;28;20061;-54
2023/01/10 08:34:35;;;;;;;33.05;4.47;;;;;;;14.02;100.00;101560.41;5055704;28;20029;-50
2023/01/10 08:37:01;;;;;;;29.17;4.43;;;;;;;13.82;100.00;101560.28;5058529;28;20048;-51
2023/01/10 08:39:29;;;;;;;40.65;5.15;;;;;;;13.75;100.00;101544.16;5057720;28;20037;-55
2023/01/10 08:41:55;;;;;;;30.50;4.25;;;;;;;14.23;100.00;101541.63;5059704;28;20096;-52
2023/01/10 08:44:20;;;;;;;24.70;3.80;;;;;;;14.23;100.00;101541.63;5057384;28;20040;-50
2023/01/10 08:46:47;;;;;;;34.45;5.38;;;;;;;13.90;100.00;101545.84;5059008;28;20048;-52
2023/01/10 08:49:12;;;;;;;33.15;6.10;;;;;;;13.99;100.00;101546.50;5053286;28;20033;-53
2023/01/10 08:51:38;;;;;;;24.92;3.80;;;;;;;13.63;100.00;101537.66;5052919;28;20049;-53
2023/01/10 08:54:03;;;;;;;40.33;5.23;;;;;;;13.93;100.00;101542.75;5058838;28;20093;-52
2023/01/10 08:56:29;;;;;;;32.45;5.10;;;;;;;13.69;100.00;101538.72;5054718;28;20333;-54
2023/01/10 08:58:55;;;;;;;26.40;6.77;;;;;;;13.32;100.00;101539.72;5053515;28;20029;-50
2023/01/10 09:01:21;;;;;;;19.58;5.35;;;;;;;13.37;100.00;101559.78;5057910;28;20282;-53
2023/01/10 09:03:46;;;;;;;25.13;4.70;;;;;;;13.66;100.00;101539.13;5062193;28;20029;-50
2023/01/10 09:06:12;;;;;;;20.80;5.80;;;;;;;13.70;100.00;101551.13;5056950;28;20277;-51
2023/01/10 09:08:37;;;;;;;30.37;6.77;;;;;;;13.58;100.00;101548.19;5059638;28;20064;-51
2023/01/10 09:11:04;;;;;;;30.50;7.40;;;;;;;13.73;100.00;101542.69;5058011;28;20346;-54
2023/01/10 09:13:30;;;;;;;38.22;9.10;;;;;;;13.43;100.00;101557.19;5055382;28;20096;-52
2023/01/10 09:15:57;;;;;;;44.15;9.77;;;;;;;14.14;100.00;101543.66;5056770;28;20034;-53
2023/01/10 09:18:23;;;;;;;33.35;6.20;;;;;;;14.10;100.00;101534.34;5060451;28;20043;-56
2023/01/10 09:20:49;;;;;;;32.28;6.05;;;;;;;14.01;100.00;101553.34;5056278;28;20060;-50
2023/01/10 09:23:19;;;;;;;22.83;5.07;;;;;;;13.87;100.00;101536.34;5057532;28;20033;-51
2023/01/10 09:25:46;;;;;;;31.13;4.55;;;;;;;14.05;100.00;101538.47;5053387;28;20036;-50
2023/01/10 09:28:12;;;;;;;;;;;;;;;13.79;100.00;101536.50;5055755;28;20045;-52
2023/01/10 09:30:37;;;;;;;33.10;5.00;;;;;;;13.34;100.00;101540.34;5058644;28;19913;-51
2023/01/10 09:33:04;;;;;;;31.03;6.27;;;;;;;12.88;100.00;101549.72;5054646;28;20067;-51
2023/01/10 09:35:30;;;;;;;;;;;;;;;13.25;100.00;101540.69;5056835;28;20363;-54
2023/01/10 09:37:57;;;;;;;31.45;6.47;;;;;;;13.32;100.00;101537.03;5054521;28;19921;-47
2023/01/10 09:41:00;;;;;;;28.98;5.38;;;;;;;13.62;100.00;101544.91;5063102;28;20033;-52
2023/01/10 09:43:54;;;;;;;34.92;5.75;;;;;;;13.58;100.00;101540.94;5051470;28;20029;-47
2023/01/10 09:46:43;;;;;;;42.83;7.55;;;;;;;13.42;100.00;101538.56;5059517;28;20045;-51
2023/01/10 09:49:30;;;;;;;31.23;8.02;;;;;;;13.44;100.00;101539.22;5063419;28;20029;-54
2023/01/10 09:51:57;;;;;;;33.58;7.40;;;;;;;13.62;100.00;101544.06;5060272;28;20029;-50
2023/01/10 09:54:27;;;;;;;34.53;8.30;;;;;;;13.85;100.00;101546.47;5057140;28;20052;-51
2023/01/10 09:56:54;;;;;;;44.22;9.45;;;;;;;13.64;100.00;101547.38;5064250;28;20037;-51
2023/01/10 09:59:23;;;;;;;33.53;6.80;;;;;;;13.42;100.00;101533.19;5063793;28;20029;-50
2023/01/10 10:01:58;;;;;;;49.65;7.53;;;;;;;13.07;100.00;101542.03;5058922;28;20097;-48
2023/01/10 10:04:34;;;;;;;26.80;6.85;;;;;;;13.31;100.00;101553.38;5054689;28;20025;-50
2023/01/10 10:07:01;;;;;;;41.83;5.75;;;;;;;13.50;100.00;101551.84;5065925;28;20029;-51
2023/01/10 10:09:32;;;;;;;22.77;4.90;;;;;;;14.87;100.00;101561.84;5058191;28;20029;-50
2023/01/10 10:12:22;;;;;;;32.13;5.57;;;;;;;16.12;100.00;101553.13;5058636;28;20029;-51
2023/01/10 10:15:04;;;;;;;27.80;7.60;;;;;;;13.88;100.00;101551.44;5056888;28;20045;-53
2023/01/10 10:17:44;;;;;;;28.63;5.70;;;;;;;13.27;100.00;101535.97;5061160;28;20041;-53
2023/01/10 10:20:17;;;;;;;26.95;5.28;;;;;;;13.77;100.00;101530.50;5054421;28;20041;-51
2023/01/10 10:23:01;;;;;;;23.42;4.63;;;;;;;14.34;100.00;101539.16;5060644;28;20038;-54
2023/01/10 10:25:38;;;;;;;27.90;4.05;;;;;;;13.43;100.00;101524.13;5051143;28;20041;-54
2023/01/10 10:28:30;;;;;;;;;;;;;;;13.30;100.00;101540.97;5054781;28;20033;-53
2023/01/10 10:31:14;;;;;;;22.92;4.72;;;;;;;13.64;100.00;101525.06;5063591;28;19939;-54
2023/01/10 10:33:42;;;;;;;27.02;4.97;;;;;;;13.41;100.00;101526.16;5059942;28;20025;-53
2023/01/10 10:36:16;;;;;;;23.92;5.47;;;;;;;13.46;100.00;101513.78;5063399;28;20041;-51
2023/01/10 10:38:46;;;;;;;25.77;5.95;;;;;;;14.27;100.00;101510.59;5058836;28;20044;-52
2023/01/10 10:41:28;;;;;;;27.42;5.63;;;;;;;13.86;100.00;101505.09;5060837;28;20040;-52
2023/01/10 10:43:59;;;;;;;30.52;6.60;;;;;;;13.97;100.00;101500.16;5062345;28;20041;-54
2023/01/10 10:46:25;;;;;;;40.90;7.95;;;;;;;14.86;100.00;101489.34;5060593;28;20047;-53
2023/01/10 10:48:58;;;;;;;30.40;5.30;;;;;;;14.09;100.00;101501.25;5062503;28;20034;-47
2023/01/10 10:51:36;;;;;;;32.65;6.32;;;;;;;13.95;100.00;101491.47;5059394;28;20036;-50
2023/01/10 10:54:02;;;;;;;29.40;5.85;;;;;;;13.85;100.00;101487.31;5061827;28;20048;-50
2023/01/10 10:56:29;;;;;;;30.40;6.82;;;;;;;14.80;100.00;101488.31;5058433;28;20108;-52
2023/01/10 10:58:58;;;;;;;27.38;4.78;;;;;;;14.70;100.00;101496.78;5061155;28;20029;-52
2023/01/10 11:01:23;;;;;;;26.80;4.68;;;;;;;14.90;100.00;101477.13;5061682;28;20109;-52
2023/01/10 11:03:57;;;;;;;34.83;5.78;;;;;;;14.58;100.00;101476.91;5060257;28;20059;-54
2023/01/10 11:06:25;;;;;;;22.10;3.80;;;;;;;14.83;100.00;101479.00;5058472;28;20044;-50
2023/01/10 11:08:54;;;;;;;23.48;4.60;;;;;;;14.24;100.00;101468.78;5056894;28;20045;-52
2023/01/10 11:11:25;;;;;;;33.63;4.43;;;;;;;14.54;100.00;101470.28;5061580;28;20040;-53
2023/01/10 11:13:56;;;;;;;24.00;4.13;;;;;;;14.74;100.00;101454.16;5060259;28;20033;-50
2023/01/10 11:16:28;;;;;;;34.03;4.15;;;;;;;14.70;100.00;101459.09;5060818;28;20107;-50
2023/01/10 11:19:18;;;;;;;25.85;3.97;;;;;;;14.37;100.00;101451.84;5057733;28;20041;-51
2023/01/10 11:21:59;;;;;;;21.52;4.22;;;;;;;15.25;100.00;101463.41;5062527;28;20063;-54
2023/01/10 11:24:34;;;;;;;23.98;4.03;;;;;;;15.04;100.00;101457.22;5058602;28;20034;-49
2023/01/10 11:27:14;;;;;;;21.77;4.10;;;;;;;14.49;100.00;101454.75;5062730;28;20040;-49